Portada
METAR-TAF:

METAR-TAF

Aeroports :

Saint-Pierre, Reunió

latitud: 21-20S, longitud: 055-29E, altitud: 52 m

Observació

L'informe es va fer fa 37 minuts, a les 15:30 UTC
Vent 18 kt del Est/Sud-Est
Temperatura 22°C
Humitat 73%
Pressió 1022 hPa
Visibilitat 10 km o més
Escasses núvols a una alçada de 2100 ft
Cel ennuvolat a una alçada de 6600 ft
Cel ennuvolat a una alçada de 7800 ft

METAR: FMEP 191530Z AUTO 11018KT 9999 FEW021 BKN066 BKN078 22/17 Q1022

Hora: 20:07 (16:07 UTC)

Pronòstic

L'informe es va fer fa 5 hores i 7 minuts, a les 11:00 UTC
Pronòstic vàlid del 19 a les 12 UTC al 19 a les 21 UTC
Vent 25 kt del Sud-Est
Visibilitat 10 km o més
Escasses núvols a una alçada de 2600 ft

TAF: FMEP 191100Z 1912/1921 13025KT 9999 FEW026

Observacions i pronòstics meteorològics de més de 4000 aeroports (METAR i TAF).

Les estacions disponibles són els punts grocs i vermells al mapa.

Posi el ratolí al punt desitjat per veure el nom de l'estació.

Feu clic per veure les observacions i els pronòstics meteorològics.

Per canviar el mapa: feu clic els botons verds amb una creu de color negre per apropar; al botó verd amb un guió per allunyar la imatge; o en les fletxes verdes per a mapes adjacents.


METAR-TAF: